createdAt,value
2022-11-27T00:01:32.598Z,67.50
2022-11-27T00:03:59.816Z,67.40
2022-11-27T00:06:28.358Z,67.30
2022-11-27T00:09:04.009Z,67.20
2022-11-27T00:11:32.086Z,66.90
2022-11-27T00:13:59.684Z,66.80
2022-11-27T00:16:27.797Z,66.70
2022-11-27T00:18:54.662Z,66.50
2022-11-27T00:21:33.037Z,66.40
2022-11-27T00:24:01.830Z,66.30
2022-11-27T00:26:36.033Z,67.00
2022-11-27T00:29:05.067Z,66.30
2022-11-27T00:31:33.717Z,66.30
2022-11-27T00:34:03.569Z,66.30
2022-11-27T00:36:32.387Z,66.30
2022-11-27T00:38:59.422Z,66.30
2022-11-27T00:41:30.901Z,66.40
2022-11-27T00:43:58.029Z,66.30
2022-11-27T00:46:29.060Z,66.30
2022-11-27T00:48:57.674Z,66.30
2022-11-27T00:51:25.579Z,66.10
2022-11-27T00:53:53.290Z,66.10
2022-11-27T00:56:23.354Z,66.00
2022-11-27T00:58:50.827Z,66.30
2022-11-27T01:01:38.781Z,66.10
2022-11-27T01:04:07.527Z,66.20
2022-11-27T01:06:35.104Z,66.20
2022-11-27T01:09:02.291Z,66.20
2022-11-27T01:11:31.611Z,66.20
2022-11-27T01:14:01.805Z,66.20
2022-11-27T01:16:30.477Z,66.20
2022-11-27T01:18:59.056Z,66.30
2022-11-27T01:21:27.883Z,66.40
2022-11-27T01:23:55.231Z,66.40
2022-11-27T01:26:22.299Z,66.30
2022-11-27T01:28:52.338Z,66.30
2022-11-27T01:31:22.435Z,66.20
2022-11-27T01:33:53.540Z,66.30
2022-11-27T01:36:20.712Z,66.40
2022-11-27T01:38:47.505Z,66.50
2022-11-27T01:41:18.714Z,66.50
2022-11-27T01:43:55.454Z,66.40
2022-11-27T01:46:37.072Z,66.40
2022-11-27T01:49:10.053Z,66.50
2022-11-27T01:51:50.544Z,66.60
2022-11-27T01:54:19.071Z,66.60
2022-11-27T01:56:49.747Z,66.60
2022-11-27T01:59:18.155Z,66.60
2022-11-27T02:01:44.976Z,66.70
2022-11-27T02:04:12.233Z,66.70
2022-11-27T02:06:39.209Z,66.70
2022-11-27T02:09:06.326Z,66.60
2022-11-27T02:11:45.170Z,66.70
2022-11-27T02:14:28.268Z,66.50
2022-11-27T02:17:28.425Z,66.50
2022-11-27T02:20:16.963Z,66.30
2022-11-27T02:23:31.673Z,66.30
2022-11-27T02:26:13.759Z,66.40
2022-11-27T02:28:58.709Z,66.20
2022-11-27T02:31:28.679Z,66.10
2022-11-27T02:34:03.634Z,66.20
2022-11-27T02:36:33.034Z,68.30
2022-11-27T02:39:04.886Z,66.30
2022-11-27T02:41:44.697Z,66.40
2022-11-27T02:44:12.307Z,66.60
2022-11-27T02:46:40.238Z,66.50
2022-11-27T02:49:12.403Z,66.50
2022-11-27T02:51:44.983Z,66.50
2022-11-27T02:54:17.792Z,66.50
2022-11-27T02:56:48.152Z,66.40
2022-11-27T02:59:16.581Z,66.30
2022-11-27T03:01:46.232Z,66.40
2022-11-27T03:04:23.143Z,66.60
2022-11-27T03:06:55.320Z,66.20
2022-11-27T03:09:39.490Z,66.20
2022-11-27T03:12:08.635Z,66.20
2022-11-27T03:14:39.336Z,66.00
2022-11-27T03:17:47.503Z,66.10
2022-11-27T03:20:20.900Z,66.30
2022-11-27T03:22:47.789Z,66.20
2022-11-27T03:25:16.301Z,66.20
2022-11-27T03:27:54.519Z,66.30
2022-11-27T03:30:21.506Z,66.20
2022-11-27T03:32:48.382Z,66.20
2022-11-27T03:35:18.586Z,66.30
2022-11-27T03:37:45.775Z,66.20
2022-11-27T03:40:13.488Z,66.20
2022-11-27T03:43:25.196Z,66.30
2022-11-27T03:46:06.238Z,66.40
2022-11-27T03:48:43.348Z,66.40
2022-11-27T03:51:30.086Z,66.60
2022-11-27T03:54:25.074Z,66.60
2022-11-27T03:56:54.910Z,66.50
2022-11-27T03:59:26.291Z,66.60
2022-11-27T04:01:53.270Z,66.30
2022-11-27T04:04:20.142Z,66.40
2022-11-27T04:06:47.134Z,66.30
2022-11-27T04:09:13.943Z,65.00
2022-11-27T04:11:40.729Z,66.30
2022-11-27T04:14:07.649Z,66.40
2022-11-27T04:16:34.535Z,66.50
2022-11-27T04:19:01.409Z,66.50
2022-11-27T04:21:28.235Z,66.20
2022-11-27T04:23:54.969Z,66.70
2022-11-27T04:26:21.966Z,66.70
2022-11-27T04:28:48.754Z,66.70
2022-11-27T04:31:15.616Z,66.70
2022-11-27T04:33:42.555Z,67.30
2022-11-27T04:36:09.435Z,66.60
2022-11-27T04:38:36.239Z,66.60
2022-11-27T04:41:03.043Z,66.60
2022-11-27T04:43:29.875Z,66.70
2022-11-27T04:45:56.757Z,66.60
2022-11-27T04:48:23.527Z,66.90
2022-11-27T04:50:50.366Z,66.60
2022-11-27T04:53:17.133Z,66.60
2022-11-27T04:55:43.990Z,66.60
2022-11-27T04:58:10.809Z,68.60
2022-11-27T05:00:37.817Z,66.80
2022-11-27T05:03:04.725Z,66.80
2022-11-27T05:05:31.642Z,66.80
2022-11-27T05:07:58.533Z,66.70
2022-11-27T05:10:25.402Z,66.70
2022-11-27T05:12:52.253Z,66.70
2022-11-27T05:15:19.374Z,66.60
2022-11-27T05:17:46.154Z,66.50
2022-11-27T05:20:13.018Z,66.50
2022-11-27T05:22:39.951Z,66.40
2022-11-27T05:25:06.983Z,66.40
2022-11-27T05:27:33.814Z,66.40
2022-11-27T05:30:00.599Z,66.40
2022-11-27T05:32:27.444Z,66.40
2022-11-27T05:34:54.316Z,66.40
2022-11-27T05:37:21.198Z,66.40
2022-11-27T05:39:48.043Z,66.40
2022-11-27T05:42:14.853Z,66.40
2022-11-27T05:44:41.914Z,67.60
2022-11-27T05:47:09.079Z,66.40
2022-11-27T05:49:36.666Z,66.40
2022-11-27T05:52:03.530Z,66.30
2022-11-27T05:54:30.308Z,66.30
2022-11-27T05:56:57.135Z,66.50
2022-11-27T05:59:24.022Z,66.50
2022-11-27T06:01:50.968Z,66.60
2022-11-27T06:04:18.075Z,66.30
2022-11-27T06:06:44.871Z,66.30
2022-11-27T06:09:13.368Z,66.30
2022-11-27T06:11:41.559Z,66.50
2022-11-27T06:14:10.019Z,66.60
2022-11-27T06:16:36.947Z,66.70
2022-11-27T06:19:04.358Z,66.80
2022-11-27T06:21:31.388Z,67.70
2022-11-27T06:23:58.223Z,67.00
2022-11-27T06:26:28.207Z,67.20
2022-11-27T06:28:56.810Z,67.50
2022-11-27T06:31:26.347Z,67.50
2022-11-27T06:33:55.465Z,67.50
2022-11-27T06:36:43.607Z,67.60
2022-11-27T06:39:11.916Z,67.70
2022-11-27T06:41:38.785Z,67.80
2022-11-27T06:44:05.731Z,67.80
2022-11-27T06:46:32.527Z,68.00
2022-11-27T06:48:59.583Z,68.10
2022-11-27T06:51:28.787Z,68.10
2022-11-27T06:53:58.727Z,68.00
2022-11-27T06:56:27.730Z,68.00
2022-11-27T06:58:57.301Z,68.20
2022-11-27T07:01:26.291Z,68.20
2022-11-27T07:03:53.400Z,68.40
2022-11-27T07:06:22.859Z,68.20
2022-11-27T07:08:50.238Z,68.20
2022-11-27T07:11:22.853Z,69.20
2022-11-27T07:13:50.788Z,68.40
2022-11-27T07:16:18.695Z,69.30
2022-11-27T07:18:51.011Z,68.60
2022-11-27T07:21:17.862Z,68.60
2022-11-27T07:23:45.353Z,68.60
2022-11-27T07:26:24.054Z,68.80
2022-11-27T07:28:51.392Z,69.20
2022-11-27T07:31:24.002Z,69.30
2022-11-27T07:33:52.627Z,69.40
2022-11-27T07:36:22.295Z,69.50
2022-11-27T07:38:49.851Z,69.80
2022-11-27T07:41:17.806Z,69.50
2022-11-27T07:43:45.127Z,69.50
2022-11-27T07:46:18.437Z,69.50
2022-11-27T07:48:45.751Z,69.70
2022-11-27T07:51:15.440Z,69.60
2022-11-27T07:53:43.175Z,69.60
2022-11-27T07:56:12.038Z,69.70
2022-11-27T07:58:39.010Z,69.90
2022-11-27T08:01:08.449Z,69.80
2022-11-27T08:03:35.771Z,69.90
2022-11-27T08:06:02.579Z,69.80
2022-11-27T08:08:29.527Z,69.80
2022-11-27T08:10:56.329Z,69.70
2022-11-27T08:13:23.161Z,69.60
2022-11-27T08:15:50.020Z,69.90
2022-11-27T08:18:17.024Z,69.80
2022-11-27T08:20:43.819Z,69.90
2022-11-27T08:23:10.819Z,69.90
2022-11-27T08:25:38.398Z,70.00
2022-11-27T08:28:05.291Z,70.10
2022-11-27T08:30:32.196Z,70.00
2022-11-27T08:32:58.986Z,70.10
2022-11-27T08:35:25.780Z,70.10
2022-11-27T08:37:52.761Z,70.00
2022-11-27T08:40:19.715Z,70.10
2022-11-27T08:42:46.531Z,69.90
2022-11-27T08:45:13.819Z,70.00
2022-11-27T08:47:40.739Z,69.80
2022-11-27T08:50:08.266Z,69.70
2022-11-27T08:52:35.087Z,69.60
2022-11-27T08:55:01.951Z,69.50
2022-11-27T08:57:28.720Z,70.30
2022-11-27T08:59:55.614Z,69.60
2022-11-27T09:02:22.402Z,69.40
2022-11-27T09:04:49.212Z,69.20
2022-11-27T09:07:16.717Z,69.20
2022-11-27T09:09:43.944Z,69.20
2022-11-27T09:12:10.751Z,69.20
2022-11-27T09:14:37.842Z,69.30
2022-11-27T09:17:04.869Z,69.40
2022-11-27T09:19:31.695Z,69.60
2022-11-27T09:21:59.481Z,69.70
2022-11-27T09:24:26.352Z,69.70
2022-11-27T09:26:53.196Z,69.80
2022-11-27T09:29:20.051Z,70.00
2022-11-27T09:31:46.920Z,70.10
2022-11-27T09:34:14.861Z,70.00
2022-11-27T09:36:41.633Z,70.00
2022-11-27T09:39:08.414Z,70.00
2022-11-27T09:41:39.378Z,70.00
2022-11-27T09:44:43.529Z,69.70
2022-11-27T09:47:28.266Z,69.60
2022-11-27T09:50:22.554Z,69.60
2022-11-27T09:53:01.356Z,69.60
2022-11-27T09:55:41.686Z,69.60
2022-11-27T09:58:28.836Z,69.80
2022-11-27T10:00:55.853Z,70.00
2022-11-27T10:03:27.531Z,70.00
2022-11-27T10:06:10.631Z,69.90
2022-11-27T10:08:56.513Z,70.00
2022-11-27T10:11:35.468Z,70.10
2022-11-27T10:14:38.110Z,70.40
2022-11-27T10:17:24.641Z,70.50
2022-11-27T10:20:10.133Z,70.60
2022-11-27T10:22:47.609Z,70.50
2022-11-27T10:25:28.284Z,70.40
2022-11-27T10:28:23.545Z,70.40
2022-11-27T10:30:57.463Z,70.50
2022-11-27T10:33:29.663Z,70.60
2022-11-27T10:35:56.992Z,70.60
2022-11-27T10:38:26.951Z,70.40
2022-11-27T10:41:47.769Z,70.50
2022-11-27T10:44:23.864Z,70.20
2022-11-27T10:46:55.239Z,70.30
2022-11-27T10:49:22.027Z,70.20
2022-11-27T10:51:48.795Z,70.10
2022-11-27T10:54:26.091Z,69.90
2022-11-27T10:57:21.936Z,70.20
2022-11-27T11:00:06.700Z,70.40
2022-11-27T11:02:37.245Z,70.20
2022-11-27T11:08:19.160Z,70.00
2022-11-27T11:10:59.437Z,69.80
2022-11-27T11:13:47.655Z,69.80
2022-11-27T11:16:24.347Z,69.80
2022-11-27T11:18:53.923Z,70.00
2022-11-27T11:21:40.524Z,70.10
2022-11-27T11:24:14.392Z,70.20
2022-11-27T11:26:47.579Z,70.30
2022-11-27T11:29:34.545Z,70.30
2022-11-27T11:32:11.126Z,70.50
2022-11-27T11:34:46.828Z,70.60
2022-11-27T11:37:44.427Z,70.50
2022-11-27T11:40:16.233Z,70.20
2022-11-27T11:43:01.440Z,70.40
2022-11-27T11:45:32.863Z,70.40
2022-11-27T11:48:26.929Z,70.50
2022-11-27T11:50:55.510Z,70.60
2022-11-27T11:53:38.871Z,70.80
2022-11-27T11:56:37.940Z,70.70
2022-11-27T11:59:13.728Z,70.50
2022-11-27T12:02:16.480Z,70.50
2022-11-27T12:05:06.263Z,70.40
2022-11-27T12:07:51.813Z,70.20
2022-11-27T12:10:43.044Z,70.30
2022-11-27T12:13:33.341Z,70.10
2022-11-27T12:16:21.438Z,70.10
2022-11-27T12:19:00.845Z,69.90
2022-11-27T12:21:40.299Z,69.50
2022-11-27T12:24:21.808Z,69.00
2022-11-27T12:27:17.892Z,69.10
2022-11-27T12:30:14.455Z,70.10
2022-11-27T12:33:00.625Z,69.40
2022-11-27T12:35:54.717Z,69.40
2022-11-27T12:38:38.870Z,69.20
2022-11-27T12:41:43.287Z,69.30
2022-11-27T12:44:30.573Z,69.40
2022-11-27T12:47:26.388Z,69.50
2022-11-27T12:50:01.065Z,69.40
2022-11-27T12:52:41.796Z,69.40
2022-11-27T12:55:27.912Z,69.60
2022-11-27T12:58:03.531Z,69.40
2022-11-27T13:00:32.791Z,69.30
2022-11-27T13:03:21.179Z,69.50
2022-11-27T13:05:53.851Z,69.90
2022-11-27T13:08:26.490Z,69.80
2022-11-27T13:11:04.950Z,69.90
2022-11-27T13:13:37.585Z,70.10
2022-11-27T13:16:05.783Z,70.30
2022-11-27T13:18:45.062Z,70.80
2022-11-27T13:21:25.117Z,70.80
2022-11-27T13:23:52.371Z,70.80
2022-11-27T13:26:30.276Z,70.60
2022-11-27T13:29:05.344Z,70.40
2022-11-27T13:31:37.538Z,70.40
2022-11-27T13:34:15.742Z,70.20
2022-11-27T13:36:46.375Z,70.20
2022-11-27T13:39:30.075Z,70.10
2022-11-27T13:42:05.890Z,70.10
2022-11-27T13:44:37.134Z,70.00
2022-11-27T13:47:15.206Z,70.00
2022-11-27T13:49:43.478Z,70.10
2022-11-27T13:52:16.626Z,70.20
2022-11-27T13:55:00.628Z,70.50
2022-11-27T13:57:29.575Z,70.60
2022-11-27T14:00:05.179Z,70.50
2022-11-27T14:02:50.801Z,70.70
2022-11-27T14:05:33.991Z,70.90
2022-11-27T14:08:01.071Z,70.80
2022-11-27T14:10:32.217Z,70.80
2022-11-27T14:13:08.357Z,70.60
2022-11-27T14:15:36.434Z,70.50
2022-11-27T14:18:19.669Z,70.50
2022-11-27T14:20:51.029Z,70.30
2022-11-27T14:23:37.974Z,70.40
2022-11-27T14:26:20.809Z,70.60
2022-11-27T14:28:54.838Z,70.50
2022-11-27T14:31:31.453Z,71.20
2022-11-27T14:34:15.293Z,70.60
2022-11-27T14:36:43.747Z,70.50
2022-11-27T14:39:31.521Z,70.40
2022-11-27T14:42:07.849Z,70.40
2022-11-27T14:44:35.140Z,70.30
2022-11-27T14:47:05.480Z,70.30
2022-11-27T14:49:33.723Z,70.30
2022-11-27T14:52:04.415Z,70.10
2022-11-27T14:54:39.222Z,70.10
2022-11-27T14:57:10.990Z,70.10
2022-11-27T14:59:38.144Z,70.00
2022-11-27T15:02:14.254Z,69.90
2022-11-27T15:04:42.138Z,69.90
2022-11-27T15:07:29.433Z,70.00
2022-11-27T15:09:58.884Z,69.90
2022-11-27T15:12:31.992Z,69.90
2022-11-27T15:15:03.520Z,70.10
2022-11-27T15:17:33.491Z,70.00
2022-11-27T15:20:02.511Z,70.00
2022-11-27T15:22:29.889Z,70.00
2022-11-27T15:25:00.524Z,70.10
2022-11-27T15:27:27.707Z,70.10
2022-11-27T15:30:16.926Z,70.20
2022-11-27T15:32:53.744Z,70.40
2022-11-27T15:35:25.738Z,70.40
2022-11-27T15:37:54.439Z,70.40
2022-11-27T15:40:29.758Z,70.40
2022-11-27T15:42:56.797Z,70.40
2022-11-27T15:45:26.935Z,70.40
2022-11-27T15:47:59.422Z,70.40
2022-11-27T15:50:26.921Z,71.10
2022-11-27T15:52:54.027Z,70.30
2022-11-27T15:55:21.053Z,70.30
2022-11-27T15:57:48.173Z,70.30
2022-11-27T16:00:15.460Z,70.30
2022-11-27T16:02:42.626Z,70.30
2022-11-27T16:05:09.815Z,70.30
2022-11-27T16:07:37.662Z,70.30
2022-11-27T16:10:05.546Z,70.30
2022-11-27T16:12:32.523Z,70.30
2022-11-27T16:14:59.409Z,70.30
2022-11-27T16:17:26.334Z,70.40
2022-11-27T16:19:53.088Z,70.40
2022-11-27T16:22:19.971Z,70.40
2022-11-27T16:24:46.783Z,71.20
2022-11-27T16:27:13.601Z,70.50
2022-11-27T16:29:40.710Z,70.30
2022-11-27T16:32:08.023Z,70.30
2022-11-27T16:34:35.684Z,70.20
2022-11-27T16:37:03.579Z,70.10
2022-11-27T16:39:30.417Z,70.10
2022-11-27T16:41:57.404Z,70.30
2022-11-27T16:44:24.530Z,70.10
2022-11-27T16:46:53.623Z,69.10
2022-11-27T16:49:21.751Z,70.20
2022-11-27T16:51:50.048Z,70.30
2022-11-27T16:54:17.426Z,70.20
2022-11-27T16:56:46.087Z,70.20
2022-11-27T16:59:15.146Z,70.20
2022-11-27T17:01:43.673Z,70.30
2022-11-27T17:04:18.154Z,70.30
2022-11-27T17:06:46.183Z,70.30
2022-11-27T17:09:13.680Z,70.30
2022-11-27T17:11:48.454Z,70.20
2022-11-27T17:14:16.293Z,70.40
2022-11-27T17:16:43.433Z,70.20
2022-11-27T17:19:15.919Z,70.20
2022-11-27T17:21:44.880Z,70.20
2022-11-27T17:24:16.079Z,70.20
2022-11-27T17:26:46.207Z,70.20
2022-11-27T17:29:15.344Z,70.90
2022-11-27T17:31:42.991Z,70.10
2022-11-27T17:34:13.242Z,70.10
2022-11-27T17:36:42.083Z,70.20
2022-11-27T17:39:10.907Z,70.30
2022-11-27T17:41:37.942Z,70.00
2022-11-27T17:44:07.752Z,70.00
2022-11-27T17:46:36.256Z,71.70
2022-11-27T17:49:06.058Z,70.00
2022-11-27T17:51:35.125Z,70.00
2022-11-27T17:54:03.428Z,70.00
2022-11-27T17:56:32.363Z,70.00
2022-11-27T17:59:02.385Z,70.00
2022-11-27T18:01:30.250Z,70.00
2022-11-27T18:04:00.615Z,70.00
2022-11-27T18:06:30.497Z,70.10
2022-11-27T18:08:58.581Z,70.00
2022-11-27T18:11:28.465Z,70.10
2022-11-27T18:13:58.341Z,70.20
2022-11-27T18:16:31.763Z,70.10
2022-11-27T18:18:59.498Z,70.30
2022-11-27T18:21:27.277Z,70.30
2022-11-27T18:24:25.654Z,70.30
2022-11-27T18:29:29.241Z,70.40
2022-11-27T18:31:56.126Z,71.00
2022-11-27T18:34:24.291Z,70.40
2022-11-27T18:36:54.110Z,70.30
2022-11-27T18:39:21.714Z,70.30
2022-11-27T18:41:48.536Z,70.30
2022-11-27T18:44:15.397Z,70.20
2022-11-27T18:46:42.607Z,70.20
2022-11-27T18:49:10.563Z,70.10
2022-11-27T18:51:37.799Z,70.00
2022-11-27T18:54:04.961Z,70.00
2022-11-27T18:56:32.494Z,69.90
2022-11-27T18:59:04.442Z,70.00
2022-11-27T19:01:41.230Z,70.10
2022-11-27T19:04:10.784Z,70.10
2022-11-27T19:06:42.741Z,70.00
2022-11-27T19:09:15.449Z,70.10
2022-11-27T19:11:43.333Z,70.10
2022-11-27T19:14:10.212Z,70.00
2022-11-27T19:16:46.325Z,70.00
2022-11-27T19:19:52.710Z,69.90
2022-11-27T19:22:07.270Z,69.90
2022-11-27T19:24:34.136Z,70.00
2022-11-27T19:27:00.943Z,70.00
2022-11-27T19:29:29.007Z,70.10
2022-11-27T19:31:58.447Z,70.00
2022-11-27T19:34:26.444Z,70.00
2022-11-27T19:36:54.094Z,69.90
2022-11-27T19:39:21.348Z,70.00
2022-11-27T19:41:49.392Z,70.00
2022-11-27T19:44:17.786Z,69.90
2022-11-27T19:46:46.415Z,69.90
2022-11-27T19:49:17.568Z,70.10
2022-11-27T19:51:45.692Z,69.90
2022-11-27T19:54:14.871Z,69.90
2022-11-27T19:56:43.021Z,69.80
2022-11-27T19:59:11.536Z,69.80
2022-11-27T20:01:40.848Z,70.40
2022-11-27T20:04:10.460Z,69.60
2022-11-27T20:06:39.965Z,69.50
2022-11-27T20:09:08.047Z,69.40
2022-11-27T20:11:36.325Z,69.40
2022-11-27T20:14:06.596Z,69.40
2022-11-27T20:16:34.558Z,69.30
2022-11-27T20:19:02.571Z,69.30
2022-11-27T20:21:29.471Z,69.30
2022-11-27T20:23:58.401Z,69.30
2022-11-27T20:26:28.497Z,69.30
2022-11-27T20:28:56.796Z,69.20
2022-11-27T20:31:30.268Z,69.10
2022-11-27T20:34:01.007Z,69.00
2022-11-27T20:36:29.475Z,67.60
2022-11-27T20:38:59.913Z,69.10
2022-11-27T20:41:28.259Z,69.00
2022-11-27T20:43:59.368Z,68.90
2022-11-27T20:46:27.617Z,69.00
2022-11-27T20:48:55.329Z,68.90
2022-11-27T20:51:30.201Z,68.90
2022-11-27T20:54:01.170Z,68.90
2022-11-27T20:56:30.900Z,69.10
2022-11-27T20:58:58.697Z,69.00
2022-11-27T21:01:34.172Z,69.00
2022-11-27T21:04:09.149Z,69.10
2022-11-27T21:06:43.547Z,69.10
2022-11-27T21:09:13.773Z,69.20
2022-11-27T21:11:41.701Z,69.20
2022-11-27T21:14:11.970Z,69.30
2022-11-27T21:16:43.376Z,69.20
2022-11-27T21:19:18.497Z,69.10
2022-11-27T21:21:45.574Z,69.20
2022-11-27T21:24:13.227Z,69.20
2022-11-27T21:26:41.497Z,69.20
2022-11-27T21:29:08.762Z,69.30
2022-11-27T21:31:37.968Z,69.10
2022-11-27T21:34:07.548Z,69.10
2022-11-27T21:36:36.807Z,69.20
2022-11-27T21:39:07.118Z,69.20
2022-11-27T21:41:35.118Z,69.10
2022-11-27T21:44:03.084Z,69.30
2022-11-27T21:46:31.035Z,69.10
2022-11-27T21:49:00.509Z,69.20
2022-11-27T21:51:30.131Z,69.20
2022-11-27T21:53:59.300Z,69.20
2022-11-27T21:56:28.159Z,69.20
2022-11-27T21:58:55.031Z,69.20
2022-11-27T22:01:24.695Z,69.20
2022-11-27T22:03:54.174Z,69.40
2022-11-27T22:06:22.189Z,69.20
2022-11-27T22:08:51.031Z,69.10
2022-11-27T22:11:21.083Z,69.20
2022-11-27T22:13:49.133Z,69.20
2022-11-27T22:16:19.267Z,69.30
2022-11-27T22:18:48.012Z,69.40
2022-11-27T22:21:15.806Z,69.40
2022-11-27T22:23:43.643Z,69.30
2022-11-27T22:26:14.180Z,69.30
2022-11-27T22:28:41.346Z,69.20
2022-11-27T22:31:21.566Z,69.30
2022-11-27T22:33:49.653Z,69.10
2022-11-27T22:36:22.703Z,69.10
2022-11-27T22:38:52.551Z,69.10
2022-11-27T22:41:23.247Z,69.10
2022-11-27T22:43:50.413Z,69.30
2022-11-27T22:46:21.363Z,69.20
2022-11-27T22:48:53.817Z,69.20
2022-11-27T22:51:21.380Z,69.30
2022-11-27T22:53:48.573Z,69.10
2022-11-27T22:56:15.436Z,69.10
2022-11-27T22:58:42.943Z,69.00
2022-11-27T23:01:15.575Z,69.00
2022-11-27T23:03:43.068Z,68.90
2022-11-27T23:06:16.057Z,68.90
2022-11-27T23:08:44.714Z,68.90
2022-11-27T23:11:25.241Z,68.90
2022-11-27T23:13:53.981Z,69.00
2022-11-27T23:16:21.433Z,69.00
2022-11-27T23:18:48.755Z,69.10
2022-11-27T23:21:18.405Z,69.10
2022-11-27T23:23:46.063Z,69.10
2022-11-27T23:26:21.408Z,68.90
2022-11-27T23:28:50.423Z,68.90
2022-11-27T23:31:35.924Z,68.90
2022-11-27T23:34:10.129Z,69.00
2022-11-27T23:36:37.060Z,69.00
2022-11-27T23:39:06.502Z,68.90
2022-11-27T23:41:33.335Z,69.10
2022-11-27T23:44:01.558Z,69.10
2022-11-27T23:46:29.803Z,69.10
2022-11-27T23:48:59.387Z,69.00
2022-11-27T23:51:30.002Z,69.00
2022-11-27T23:53:57.762Z,69.00
2022-11-27T23:56:27.102Z,69.00
2022-11-27T23:58:55.538Z,68.80
